sensor_id;sensor_type;location;lat;lon;timestamp;P1;durP1;ratioP1;P2;durP2;ratioP2
34212;SDS011;20477;51.390;8.102;2023-12-22T00:01:21;16.35;;;3.35;;
34212;SDS011;20477;51.390;8.102;2023-12-22T00:03:50;15.88;;;3.15;;
34212;SDS011;20477;51.390;8.102;2023-12-22T00:06:17;23.35;;;3.92;;
34212;SDS011;20477;51.390;8.102;2023-12-22T00:08:45;15.30;;;4.18;;
34212;SDS011;20477;51.390;8.102;2023-12-22T00:11:12;20.17;;;3.03;;
34212;SDS011;20477;51.390;8.102;2023-12-22T00:13:39;23.38;;;3.60;;
34212;SDS011;20477;51.390;8.102;2023-12-22T00:16:08;23.23;;;4.40;;
34212;SDS011;20477;51.390;8.102;2023-12-22T00:18:36;17.95;;;3.58;;
34212;SDS011;20477;51.390;8.102;2023-12-22T00:21:04;14.75;;;3.30;;
34212;SDS011;20477;51.390;8.102;2023-12-22T00:23:32;23.95;;;4.55;;
34212;SDS011;20477;51.390;8.102;2023-12-22T00:25:59;20.60;;;3.63;;
34212;SDS011;20477;51.390;8.102;2023-12-22T00:28:26;23.52;;;3.85;;
34212;SDS011;20477;51.390;8.102;2023-12-22T00:30:54;22.17;;;4.05;;
34212;SDS011;20477;51.390;8.102;2023-12-22T00:33:22;16.02;;;3.65;;
34212;SDS011;20477;51.390;8.102;2023-12-22T00:35:50;22.77;;;4.70;;
34212;SDS011;20477;51.390;8.102;2023-12-22T00:38:17;18.98;;;3.67;;
34212;SDS011;20477;51.390;8.102;2023-12-22T00:40:45;23.58;;;3.28;;
34212;SDS011;20477;51.390;8.102;2023-12-22T00:43:12;27.50;;;3.85;;
34212;SDS011;20477;51.390;8.102;2023-12-22T00:45:40;29.45;;;4.85;;
34212;SDS011;20477;51.390;8.102;2023-12-22T00:48:07;28.95;;;3.97;;
34212;SDS011;20477;51.390;8.102;2023-12-22T00:50:36;24.48;;;3.70;;
34212;SDS011;20477;51.390;8.102;2023-12-22T00:53:03;21.98;;;4.57;;
34212;SDS011;20477;51.390;8.102;2023-12-22T00:55:31;23.95;;;3.40;;
34212;SDS011;20477;51.390;8.102;2023-12-22T00:57:58;22.33;;;4.05;;
34212;SDS011;20477;51.390;8.102;2023-12-22T01:00:25;19.63;;;4.30;;
34212;SDS011;20477;51.390;8.102;2023-12-22T01:02:53;21.08;;;3.70;;
34212;SDS011;20477;51.390;8.102;2023-12-22T01:05:20;16.30;;;2.53;;
34212;SDS011;20477;51.390;8.102;2023-12-22T01:07:49;16.80;;;3.85;;
34212;SDS011;20477;51.390;8.102;2023-12-22T01:10:17;12.50;;;2.38;;
34212;SDS011;20477;51.390;8.102;2023-12-22T01:12:44;20.35;;;3.58;;
34212;SDS011;20477;51.390;8.102;2023-12-22T01:15:11;18.83;;;3.05;;
34212;SDS011;20477;51.390;8.102;2023-12-22T01:17:39;17.10;;;3.50;;
34212;SDS011;20477;51.390;8.102;2023-12-22T01:20:07;20.70;;;3.50;;
34212;SDS011;20477;51.390;8.102;2023-12-22T01:22:34;27.75;;;5.15;;
34212;SDS011;20477;51.390;8.102;2023-12-22T01:25:04;25.85;;;3.50;;
34212;SDS011;20477;51.390;8.102;2023-12-22T01:27:32;22.30;;;4.25;;
34212;SDS011;20477;51.390;8.102;2023-12-22T01:30:00;20.45;;;2.50;;
34212;SDS011;20477;51.390;8.102;2023-12-22T01:32:27;16.90;;;2.15;;
34212;SDS011;20477;51.390;8.102;2023-12-22T01:34:55;20.63;;;3.83;;
34212;SDS011;20477;51.390;8.102;2023-12-22T01:37:22;18.40;;;2.70;;
34212;SDS011;20477;51.390;8.102;2023-12-22T01:39:50;13.50;;;2.53;;
34212;SDS011;20477;51.390;8.102;2023-12-22T01:42:19;16.45;;;3.28;;
34212;SDS011;20477;51.390;8.102;2023-12-22T01:44:46;15.40;;;3.90;;
34212;SDS011;20477;51.390;8.102;2023-12-22T01:47:14;22.77;;;3.95;;
34212;SDS011;20477;51.390;8.102;2023-12-22T01:49:41;12.77;;;2.83;;
34212;SDS011;20477;51.390;8.102;2023-12-22T01:52:09;19.30;;;2.75;;
34212;SDS011;20477;51.390;8.102;2023-12-22T01:54:36;16.25;;;3.42;;
34212;SDS011;20477;51.390;8.102;2023-12-22T01:57:05;17.80;;;3.65;;
34212;SDS011;20477;51.390;8.102;2023-12-22T01:59:34;24.75;;;4.45;;
34212;SDS011;20477;51.390;8.102;2023-12-22T02:02:01;15.48;;;3.00;;
34212;SDS011;20477;51.390;8.102;2023-12-22T02:04:30;19.55;;;3.30;;
34212;SDS011;20477;51.390;8.102;2023-12-22T02:06:58;13.32;;;3.22;;
34212;SDS011;20477;51.390;8.102;2023-12-22T02:09:25;15.45;;;2.50;;
34212;SDS011;20477;51.390;8.102;2023-12-22T02:11:53;12.02;;;2.50;;
34212;SDS011;20477;51.390;8.102;2023-12-22T02:14:20;20.90;;;3.00;;
34212;SDS011;20477;51.390;8.102;2023-12-22T02:16:51;25.98;;;3.75;;
34212;SDS011;20477;51.390;8.102;2023-12-22T02:19:22;18.20;;;3.00;;
34212;SDS011;20477;51.390;8.102;2023-12-22T02:22:01;24.05;;;3.15;;
34212;SDS011;20477;51.390;8.102;2023-12-22T02:24:35;18.20;;;3.13;;
34212;SDS011;20477;51.390;8.102;2023-12-22T02:27:04;17.50;;;3.10;;
34212;SDS011;20477;51.390;8.102;2023-12-22T02:29:32;22.52;;;3.80;;
34212;SDS011;20477;51.390;8.102;2023-12-22T02:32:02;16.55;;;3.38;;
34212;SDS011;20477;51.390;8.102;2023-12-22T02:34:32;15.60;;;2.50;;
34212;SDS011;20477;51.390;8.102;2023-12-22T02:37:03;17.90;;;3.05;;
34212;SDS011;20477;51.390;8.102;2023-12-22T02:39:32;23.73;;;3.75;;
34212;SDS011;20477;51.390;8.102;2023-12-22T02:42:01;17.70;;;3.38;;
34212;SDS011;20477;51.390;8.102;2023-12-22T02:44:29;20.80;;;2.97;;
34212;SDS011;20477;51.390;8.102;2023-12-22T02:46:56;15.23;;;2.50;;
34212;SDS011;20477;51.390;8.102;2023-12-22T02:49:24;13.50;;;2.28;;
34212;SDS011;20477;51.390;8.102;2023-12-22T02:51:51;14.23;;;2.95;;
34212;SDS011;20477;51.390;8.102;2023-12-22T02:54:18;17.63;;;3.13;;
34212;SDS011;20477;51.390;8.102;2023-12-22T02:56:45;15.20;;;3.95;;
34212;SDS011;20477;51.390;8.102;2023-12-22T02:59:14;11.50;;;1.80;;
34212;SDS011;20477;51.390;8.102;2023-12-22T03:01:42;18.63;;;3.08;;
34212;SDS011;20477;51.390;8.102;2023-12-22T03:04:09;14.75;;;2.30;;
34212;SDS011;20477;51.390;8.102;2023-12-22T03:06:36;22.92;;;2.65;;
34212;SDS011;20477;51.390;8.102;2023-12-22T03:09:03;15.55;;;2.05;;
34212;SDS011;20477;51.390;8.102;2023-12-22T03:11:30;10.65;;;1.90;;
34212;SDS011;20477;51.390;8.102;2023-12-22T03:13:58;7.65;;;2.25;;
34212;SDS011;20477;51.390;8.102;2023-12-22T03:16:27;12.70;;;2.72;;
34212;SDS011;20477;51.390;8.102;2023-12-22T03:18:54;10.52;;;2.50;;
34212;SDS011;20477;51.390;8.102;2023-12-22T03:21:22;6.45;;;1.52;;
34212;SDS011;20477;51.390;8.102;2023-12-22T03:23:48;12.48;;;2.30;;
34212;SDS011;20477;51.390;8.102;2023-12-22T03:26:16;16.58;;;2.72;;
34212;SDS011;20477;51.390;8.102;2023-12-22T03:28:43;10.52;;;2.08;;
34212;SDS011;20477;51.390;8.102;2023-12-22T03:31:10;6.88;;;2.08;;
34212;SDS011;20477;51.390;8.102;2023-12-22T03:33:39;11.57;;;1.90;;
34212;SDS011;20477;51.390;8.102;2023-12-22T03:36:07;11.43;;;2.28;;
34212;SDS011;20477;51.390;8.102;2023-12-22T03:38:34;7.78;;;1.88;;
34212;SDS011;20477;51.390;8.102;2023-12-22T03:41:01;11.90;;;2.63;;
34212;SDS011;20477;51.390;8.102;2023-12-22T03:43:28;11.18;;;1.88;;
34212;SDS011;20477;51.390;8.102;2023-12-22T03:45:56;13.27;;;2.22;;
34212;SDS011;20477;51.390;8.102;2023-12-22T03:48:23;10.07;;;2.33;;
34212;SDS011;20477;51.390;8.102;2023-12-22T03:50:52;11.57;;;2.40;;
34212;SDS011;20477;51.390;8.102;2023-12-22T03:53:19;9.73;;;1.95;;
34212;SDS011;20477;51.390;8.102;2023-12-22T03:55:46;17.05;;;2.13;;
34212;SDS011;20477;51.390;8.102;2023-12-22T03:58:13;7.53;;;2.05;;
34212;SDS011;20477;51.390;8.102;2023-12-22T04:00:41;14.25;;;2.10;;
34212;SDS011;20477;51.390;8.102;2023-12-22T04:03:09;11.07;;;2.10;;
34212;SDS011;20477;51.390;8.102;2023-12-22T04:05:36;11.20;;;2.20;;
34212;SDS011;20477;51.390;8.102;2023-12-22T04:08:05;7.60;;;2.08;;
34212;SDS011;20477;51.390;8.102;2023-12-22T04:10:33;10.30;;;2.60;;
34212;SDS011;20477;51.390;8.102;2023-12-22T04:13:00;10.38;;;1.73;;
34212;SDS011;20477;51.390;8.102;2023-12-22T04:15:28;10.48;;;1.88;;
34212;SDS011;20477;51.390;8.102;2023-12-22T04:17:55;15.13;;;2.20;;
34212;SDS011;20477;51.390;8.102;2023-12-22T04:20:23;12.27;;;2.55;;
34212;SDS011;20477;51.390;8.102;2023-12-22T04:22:50;8.88;;;1.77;;
34212;SDS011;20477;51.390;8.102;2023-12-22T04:25:19;20.75;;;2.47;;
34212;SDS011;20477;51.390;8.102;2023-12-22T04:27:47;12.00;;;2.15;;
34212;SDS011;20477;51.390;8.102;2023-12-22T04:30:14;9.40;;;1.70;;
34212;SDS011;20477;51.390;8.102;2023-12-22T04:32:42;10.00;;;2.08;;
34212;SDS011;20477;51.390;8.102;2023-12-22T04:35:10;11.07;;;1.80;;
34212;SDS011;20477;51.390;8.102;2023-12-22T04:37:37;6.07;;;1.40;;
34212;SDS011;20477;51.390;8.102;2023-12-22T04:40:05;11.70;;;1.77;;
34212;SDS011;20477;51.390;8.102;2023-12-22T04:42:34;4.85;;;1.67;;
34212;SDS011;20477;51.390;8.102;2023-12-22T04:45:02;9.88;;;1.33;;
34212;SDS011;20477;51.390;8.102;2023-12-22T04:47:30;4.93;;;1.67;;
34212;SDS011;20477;51.390;8.102;2023-12-22T04:49:58;6.47;;;1.13;;
34212;SDS011;20477;51.390;8.102;2023-12-22T04:52:26;7.45;;;1.50;;
34212;SDS011;20477;51.390;8.102;2023-12-22T04:54:53;7.35;;;1.58;;
34212;SDS011;20477;51.390;8.102;2023-12-22T04:57:20;7.90;;;1.50;;
34212;SDS011;20477;51.390;8.102;2023-12-22T04:59:49;7.60;;;1.50;;
34212;SDS011;20477;51.390;8.102;2023-12-22T05:02:17;5.00;;;1.60;;
34212;SDS011;20477;51.390;8.102;2023-12-22T05:04:44;6.93;;;1.52;;
34212;SDS011;20477;51.390;8.102;2023-12-22T05:07:13;12.15;;;2.17;;
34212;SDS011;20477;51.390;8.102;2023-12-22T05:09:41;13.43;;;2.03;;
34212;SDS011;20477;51.390;8.102;2023-12-22T05:12:08;8.77;;;2.10;;
34212;SDS011;20477;51.390;8.102;2023-12-22T05:14:36;13.00;;;1.98;;
34212;SDS011;20477;51.390;8.102;2023-12-22T05:17:05;12.23;;;2.08;;
34212;SDS011;20477;51.390;8.102;2023-12-22T05:19:32;12.70;;;2.17;;
34212;SDS011;20477;51.390;8.102;2023-12-22T05:21:59;6.97;;;2.28;;
34212;SDS011;20477;51.390;8.102;2023-12-22T05:24:26;10.40;;;2.58;;
34212;SDS011;20477;51.390;8.102;2023-12-22T05:26:54;8.30;;;1.67;;
34212;SDS011;20477;51.390;8.102;2023-12-22T05:29:21;13.60;;;2.15;;
34212;SDS011;20477;51.390;8.102;2023-12-22T05:31:49;7.95;;;2.30;;
34212;SDS011;20477;51.390;8.102;2023-12-22T05:34:19;8.93;;;1.75;;
34212;SDS011;20477;51.390;8.102;2023-12-22T05:36:47;13.85;;;2.70;;
34212;SDS011;20477;51.390;8.102;2023-12-22T05:39:14;9.93;;;2.40;;
34212;SDS011;20477;51.390;8.102;2023-12-22T05:41:41;6.15;;;1.92;;
34212;SDS011;20477;51.390;8.102;2023-12-22T05:44:09;13.10;;;1.92;;
34212;SDS011;20477;51.390;8.102;2023-12-22T05:46:36;9.30;;;1.55;;
34212;SDS011;20477;51.390;8.102;2023-12-22T05:49:04;8.88;;;2.22;;
34212;SDS011;20477;51.390;8.102;2023-12-22T05:51:37;13.38;;;2.17;;
34212;SDS011;20477;51.390;8.102;2023-12-22T05:54:04;9.65;;;1.33;;
34212;SDS011;20477;51.390;8.102;2023-12-22T05:56:32;13.15;;;1.83;;
34212;SDS011;20477;51.390;8.102;2023-12-22T05:59:00;6.88;;;1.92;;
34212;SDS011;20477;51.390;8.102;2023-12-22T06:01:29;12.85;;;2.20;;
34212;SDS011;20477;51.390;8.102;2023-12-22T06:03:56;9.15;;;1.98;;
34212;SDS011;20477;51.390;8.102;2023-12-22T06:06:23;15.93;;;2.17;;
34212;SDS011;20477;51.390;8.102;2023-12-22T06:08:53;15.07;;;2.65;;
34212;SDS011;20477;51.390;8.102;2023-12-22T06:11:20;13.38;;;2.70;;
34212;SDS011;20477;51.390;8.102;2023-12-22T06:13:48;9.93;;;2.17;;
34212;SDS011;20477;51.390;8.102;2023-12-22T06:16:15;16.65;;;3.70;;
34212;SDS011;20477;51.390;8.102;2023-12-22T06:18:43;10.95;;;2.30;;
34212;SDS011;20477;51.390;8.102;2023-12-22T06:21:10;17.77;;;3.25;;
34212;SDS011;20477;51.390;8.102;2023-12-22T06:23:38;19.50;;;3.15;;
34212;SDS011;20477;51.390;8.102;2023-12-22T06:26:09;17.35;;;2.88;;
34212;SDS011;20477;51.390;8.102;2023-12-22T06:28:37;13.60;;;3.45;;
34212;SDS011;20477;51.390;8.102;2023-12-22T06:31:04;17.70;;;2.60;;
34212;SDS011;20477;51.390;8.102;2023-12-22T06:33:31;12.85;;;2.95;;
34212;SDS011;20477;51.390;8.102;2023-12-22T06:35:59;20.23;;;3.15;;
34212;SDS011;20477;51.390;8.102;2023-12-22T06:38:27;13.88;;;3.33;;
34212;SDS011;20477;51.390;8.102;2023-12-22T06:40:54;16.05;;;2.90;;
34212;SDS011;20477;51.390;8.102;2023-12-22T06:43:23;14.68;;;3.45;;
34212;SDS011;20477;51.390;8.102;2023-12-22T06:45:51;17.83;;;4.05;;
34212;SDS011;20477;51.390;8.102;2023-12-22T06:48:19;19.83;;;3.15;;
34212;SDS011;20477;51.390;8.102;2023-12-22T06:50:46;10.73;;;2.67;;
34212;SDS011;20477;51.390;8.102;2023-12-22T06:53:13;12.63;;;3.10;;
34212;SDS011;20477;51.390;8.102;2023-12-22T06:55:51;18.75;;;4.72;;
34212;SDS011;20477;51.390;8.102;2023-12-22T06:58:19;14.70;;;4.05;;
34212;SDS011;20477;51.390;8.102;2023-12-22T07:00:47;17.63;;;3.33;;
34212;SDS011;20477;51.390;8.102;2023-12-22T07:03:15;13.57;;;3.03;;
34212;SDS011;20477;51.390;8.102;2023-12-22T07:05:43;17.42;;;3.40;;
34212;SDS011;20477;51.390;8.102;2023-12-22T07:08:10;9.68;;;3.15;;
34212;SDS011;20477;51.390;8.102;2023-12-22T07:10:38;16.77;;;3.28;;
34212;SDS011;20477;51.390;8.102;2023-12-22T07:13:07;19.50;;;4.13;;
34212;SDS011;20477;51.390;8.102;2023-12-22T07:15:34;19.70;;;4.00;;
34212;SDS011;20477;51.390;8.102;2023-12-22T07:18:04;15.70;;;3.55;;
34212;SDS011;20477;51.390;8.102;2023-12-22T07:20:32;12.75;;;3.25;;
34212;SDS011;20477;51.390;8.102;2023-12-22T07:22:59;17.55;;;4.28;;
34212;SDS011;20477;51.390;8.102;2023-12-22T07:25:27;17.80;;;4.47;;
34212;SDS011;20477;51.390;8.102;2023-12-22T07:27:56;24.33;;;4.38;;
34212;SDS011;20477;51.390;8.102;2023-12-22T07:30:23;28.25;;;5.30;;
34212;SDS011;20477;51.390;8.102;2023-12-22T07:32:51;23.73;;;4.13;;
34212;SDS011;20477;51.390;8.102;2023-12-22T07:35:20;23.85;;;4.75;;
34212;SDS011;20477;51.390;8.102;2023-12-22T07:37:48;24.45;;;4.82;;
34212;SDS011;20477;51.390;8.102;2023-12-22T07:40:16;30.65;;;5.25;;
34212;SDS011;20477;51.390;8.102;2023-12-22T07:42:43;34.97;;;6.35;;
34212;SDS011;20477;51.390;8.102;2023-12-22T07:45:11;13.52;;;3.45;;
34212;SDS011;20477;51.390;8.102;2023-12-22T07:47:39;22.00;;;5.20;;
34212;SDS011;20477;51.390;8.102;2023-12-22T07:50:07;21.83;;;4.97;;
34212;SDS011;20477;51.390;8.102;2023-12-22T07:52:37;12.32;;;3.38;;
34212;SDS011;20477;51.390;8.102;2023-12-22T07:55:08;18.00;;;3.40;;
34212;SDS011;20477;51.390;8.102;2023-12-22T07:57:35;15.77;;;3.15;;
34212;SDS011;20477;51.390;8.102;2023-12-22T08:00:04;13.77;;;3.13;;
34212;SDS011;20477;51.390;8.102;2023-12-22T08:02:32;25.40;;;4.05;;
34212;SDS011;20477;51.390;8.102;2023-12-22T08:04:59;16.58;;;3.90;;
34212;SDS011;20477;51.390;8.102;2023-12-22T08:07:27;31.40;;;4.45;;
34212;SDS011;20477;51.390;8.102;2023-12-22T08:09:56;19.42;;;3.85;;
34212;SDS011;20477;51.390;8.102;2023-12-22T08:12:24;17.15;;;5.53;;
34212;SDS011;20477;51.390;8.102;2023-12-22T08:14:51;21.83;;;4.00;;
34212;SDS011;20477;51.390;8.102;2023-12-22T08:17:18;14.20;;;3.85;;
34212;SDS011;20477;51.390;8.102;2023-12-22T08:19:45;17.10;;;4.32;;
34212;SDS011;20477;51.390;8.102;2023-12-22T08:22:15;16.73;;;4.25;;
34212;SDS011;20477;51.390;8.102;2023-12-22T08:24:43;24.42;;;5.30;;
34212;SDS011;20477;51.390;8.102;2023-12-22T08:27:12;28.00;;;8.90;;
34212;SDS011;20477;51.390;8.102;2023-12-22T08:29:39;23.77;;;5.90;;
34212;SDS011;20477;51.390;8.102;2023-12-22T08:32:06;24.33;;;6.07;;
34212;SDS011;20477;51.390;8.102;2023-12-22T08:34:34;19.85;;;5.60;;
34212;SDS011;20477;51.390;8.102;2023-12-22T08:37:02;21.10;;;6.47;;
34212;SDS011;20477;51.390;8.102;2023-12-22T08:39:30;27.05;;;7.05;;
34212;SDS011;20477;51.390;8.102;2023-12-22T08:41:57;25.17;;;4.78;;
34212;SDS011;20477;51.390;8.102;2023-12-22T08:44:26;23.73;;;4.93;;
34212;SDS011;20477;51.390;8.102;2023-12-22T08:46:54;27.90;;;6.45;;
34212;SDS011;20477;51.390;8.102;2023-12-22T08:49:21;25.38;;;5.07;;
34212;SDS011;20477;51.390;8.102;2023-12-22T08:51:49;22.73;;;4.70;;
34212;SDS011;20477;51.390;8.102;2023-12-22T08:54:17;25.95;;;5.35;;
34212;SDS011;20477;51.390;8.102;2023-12-22T08:56:44;32.20;;;6.75;;
34212;SDS011;20477;51.390;8.102;2023-12-22T08:59:11;30.38;;;5.22;;
34212;SDS011;20477;51.390;8.102;2023-12-22T09:01:40;18.48;;;4.30;;
34212;SDS011;20477;51.390;8.102;2023-12-22T09:04:09;35.20;;;5.70;;
34212;SDS011;20477;51.390;8.102;2023-12-22T09:06:37;21.13;;;4.78;;
34212;SDS011;20477;51.390;8.102;2023-12-22T09:09:05;9.73;;;2.28;;
34212;SDS011;20477;51.390;8.102;2023-12-22T09:11:33;14.30;;;3.25;;
34212;SDS011;20477;51.390;8.102;2023-12-22T09:14:01;15.32;;;3.45;;
34212;SDS011;20477;51.390;8.102;2023-12-22T09:16:28;9.00;;;1.88;;
34212;SDS011;20477;51.390;8.102;2023-12-22T09:18:57;11.15;;;1.98;;
34212;SDS011;20477;51.390;8.102;2023-12-22T09:21:24;12.55;;;3.13;;
34212;SDS011;20477;51.390;8.102;2023-12-22T09:23:52;12.20;;;2.47;;
34212;SDS011;20477;51.390;8.102;2023-12-22T09:26:19;13.27;;;3.72;;
34212;SDS011;20477;51.390;8.102;2023-12-22T09:28:47;17.95;;;3.15;;
34212;SDS011;20477;51.390;8.102;2023-12-22T09:31:15;13.55;;;2.78;;
34212;SDS011;20477;51.390;8.102;2023-12-22T09:33:42;18.38;;;3.85;;
34212;SDS011;20477;51.390;8.102;2023-12-22T09:36:11;15.45;;;4.40;;
34212;SDS011;20477;51.390;8.102;2023-12-22T09:38:39;14.98;;;4.18;;
34212;SDS011;20477;51.390;8.102;2023-12-22T09:41:07;17.85;;;5.05;;
34212;SDS011;20477;51.390;8.102;2023-12-22T09:43:35;24.27;;;5.55;;
34212;SDS011;20477;51.390;8.102;2023-12-22T09:46:03;15.85;;;5.03;;
34212;SDS011;20477;51.390;8.102;2023-12-22T09:48:31;22.77;;;6.10;;
34212;SDS011;20477;51.390;8.102;2023-12-22T09:51:00;26.75;;;6.85;;
34212;SDS011;20477;51.390;8.102;2023-12-22T09:53:30;24.58;;;6.75;;
34212;SDS011;20477;51.390;8.102;2023-12-22T09:55:58;33.90;;;7.05;;
34212;SDS011;20477;51.390;8.102;2023-12-22T09:58:26;25.33;;;6.97;;
34212;SDS011;20477;51.390;8.102;2023-12-22T10:00:54;37.55;;;7.95;;
34212;SDS011;20477;51.390;8.102;2023-12-22T10:03:22;30.27;;;7.47;;
34212;SDS011;20477;51.390;8.102;2023-12-22T10:05:51;30.90;;;7.80;;
34212;SDS011;20477;51.390;8.102;2023-12-22T10:08:19;31.15;;;7.15;;
34212;SDS011;20477;51.390;8.102;2023-12-22T10:10:48;37.83;;;8.70;;
34212;SDS011;20477;51.390;8.102;2023-12-22T10:13:16;26.60;;;7.25;;
34212;SDS011;20477;51.390;8.102;2023-12-22T10:15:45;28.80;;;7.28;;
34212;SDS011;20477;51.390;8.102;2023-12-22T10:18:14;37.05;;;9.73;;
34212;SDS011;20477;51.390;8.102;2023-12-22T10:20:43;34.10;;;8.02;;
34212;SDS011;20477;51.390;8.102;2023-12-22T10:23:13;51.35;;;9.02;;
34212;SDS011;20477;51.390;8.102;2023-12-22T10:25:40;43.10;;;10.43;;
34212;SDS011;20477;51.390;8.102;2023-12-22T10:28:11;36.53;;;8.98;;
34212;SDS011;20477;51.390;8.102;2023-12-22T10:30:40;40.15;;;9.35;;
34212;SDS011;20477;51.390;8.102;2023-12-22T10:33:07;35.47;;;8.75;;
34212;SDS011;20477;51.390;8.102;2023-12-22T10:35:34;39.17;;;9.85;;
34212;SDS011;20477;51.390;8.102;2023-12-22T10:38:03;34.85;;;8.07;;
34212;SDS011;20477;51.390;8.102;2023-12-22T10:40:31;26.48;;;7.38;;
34212;SDS011;20477;51.390;8.102;2023-12-22T10:42:58;27.45;;;4.85;;
34212;SDS011;20477;51.390;8.102;2023-12-22T10:45:27;27.33;;;4.60;;
34212;SDS011;20477;51.390;8.102;2023-12-22T10:47:56;25.60;;;4.72;;
34212;SDS011;20477;51.390;8.102;2023-12-22T10:50:24;20.90;;;3.85;;
34212;SDS011;20477;51.390;8.102;2023-12-22T10:52:52;15.18;;;4.38;;
34212;SDS011;20477;51.390;8.102;2023-12-22T10:55:20;16.13;;;4.30;;
34212;SDS011;20477;51.390;8.102;2023-12-22T10:57:48;17.40;;;3.45;;
34212;SDS011;20477;51.390;8.102;2023-12-22T11:00:16;23.13;;;4.22;;
34212;SDS011;20477;51.390;8.102;2023-12-22T11:02:46;24.13;;;4.68;;
34212;SDS011;20477;51.390;8.102;2023-12-22T11:05:14;24.98;;;4.38;;
34212;SDS011;20477;51.390;8.102;2023-12-22T11:07:42;33.53;;;5.00;;
34212;SDS011;20477;51.390;8.102;2023-12-22T11:10:14;37.42;;;5.47;;
34212;SDS011;20477;51.390;8.102;2023-12-22T11:12:43;22.05;;;4.82;;
34212;SDS011;20477;51.390;8.102;2023-12-22T11:15:11;30.75;;;5.25;;
34212;SDS011;20477;51.390;8.102;2023-12-22T11:17:39;24.33;;;5.00;;
34212;SDS011;20477;51.390;8.102;2023-12-22T11:20:10;21.65;;;4.90;;
34212;SDS011;20477;51.390;8.102;2023-12-22T11:22:37;27.50;;;4.68;;
34212;SDS011;20477;51.390;8.102;2023-12-22T11:25:06;11.20;;;4.78;;
34212;SDS011;20477;51.390;8.102;2023-12-22T11:27:37;13.90;;;4.28;;
34212;SDS011;20477;51.390;8.102;2023-12-22T11:30:05;12.55;;;3.78;;
34212;SDS011;20477;51.390;8.102;2023-12-22T11:32:32;14.75;;;4.00;;
34212;SDS011;20477;51.390;8.102;2023-12-22T11:35:00;9.32;;;3.53;;
34212;SDS011;20477;51.390;8.102;2023-12-22T11:37:30;15.48;;;4.13;;
34212;SDS011;20477;51.390;8.102;2023-12-22T11:39:58;16.67;;;4.00;;
34212;SDS011;20477;51.390;8.102;2023-12-22T11:42:26;10.57;;;3.75;;
34212;SDS011;20477;51.390;8.102;2023-12-22T11:44:55;17.33;;;3.83;;
34212;SDS011;20477;51.390;8.102;2023-12-22T11:47:23;10.35;;;4.03;;
34212;SDS011;20477;51.390;8.102;2023-12-22T11:49:52;15.07;;;3.83;;
34212;SDS011;20477;51.390;8.102;2023-12-22T11:52:25;13.23;;;4.15;;
34212;SDS011;20477;51.390;8.102;2023-12-22T11:54:55;18.27;;;3.78;;
34212;SDS011;20477;51.390;8.102;2023-12-22T11:57:29;15.23;;;3.42;;
34212;SDS011;20477;51.390;8.102;2023-12-22T11:59:58;12.82;;;3.25;;
34212;SDS011;20477;51.390;8.102;2023-12-22T12:02:25;11.13;;;2.53;;
34212;SDS011;20477;51.390;8.102;2023-12-22T12:04:53;13.82;;;2.65;;
34212;SDS011;20477;51.390;8.102;2023-12-22T12:07:37;13.13;;;2.80;;
34212;SDS011;20477;51.390;8.102;2023-12-22T12:12:34;5.05;;;1.85;;
34212;SDS011;20477;51.390;8.102;2023-12-22T12:15:06;6.80;;;2.33;;
34212;SDS011;20477;51.390;8.102;2023-12-22T12:17:34;5.95;;;1.60;;
34212;SDS011;20477;51.390;8.102;2023-12-22T12:20:05;7.90;;;1.90;;
34212;SDS011;20477;51.390;8.102;2023-12-22T12:22:34;3.95;;;1.70;;
34212;SDS011;20477;51.390;8.102;2023-12-22T12:25:04;5.85;;;1.80;;
34212;SDS011;20477;51.390;8.102;2023-12-22T12:27:38;6.85;;;1.77;;
34212;SDS011;20477;51.390;8.102;2023-12-22T12:30:08;5.93;;;1.52;;
34212;SDS011;20477;51.390;8.102;2023-12-22T12:32:38;2.97;;;1.40;;
34212;SDS011;20477;51.390;8.102;2023-12-22T12:35:06;5.13;;;1.75;;
34212;SDS011;20477;51.390;8.102;2023-12-22T12:37:34;8.38;;;1.30;;
34212;SDS011;20477;51.390;8.102;2023-12-22T12:40:03;8.88;;;1.50;;
34212;SDS011;20477;51.390;8.102;2023-12-22T12:42:35;3.20;;;1.38;;
34212;SDS011;20477;51.390;8.102;2023-12-22T12:45:06;6.97;;;1.42;;
34212;SDS011;20477;51.390;8.102;2023-12-22T12:47:34;8.90;;;1.95;;
34212;SDS011;20477;51.390;8.102;2023-12-22T12:50:03;5.75;;;1.83;;
34212;SDS011;20477;51.390;8.102;2023-12-22T12:52:31;6.03;;;1.95;;
34212;SDS011;20477;51.390;8.102;2023-12-22T12:54:58;9.23;;;1.73;;
34212;SDS011;20477;51.390;8.102;2023-12-22T12:57:26;2.72;;;1.60;;
34212;SDS011;20477;51.390;8.102;2023-12-22T12:59:54;9.80;;;1.95;;
34212;SDS011;20477;51.390;8.102;2023-12-22T13:02:23;5.50;;;1.65;;
34212;SDS011;20477;51.390;8.102;2023-12-22T13:04:50;10.88;;;2.05;;
34212;SDS011;20477;51.390;8.102;2023-12-22T13:07:24;6.38;;;2.10;;
34212;SDS011;20477;51.390;8.102;2023-12-22T13:09:52;4.78;;;1.40;;
34212;SDS011;20477;51.390;8.102;2023-12-22T13:12:19;7.55;;;2.22;;
34212;SDS011;20477;51.390;8.102;2023-12-22T13:14:46;8.60;;;2.17;;
34212;SDS011;20477;51.390;8.102;2023-12-22T13:17:14;5.72;;;2.35;;
34212;SDS011;20477;51.390;8.102;2023-12-22T13:19:43;9.90;;;2.80;;
34212;SDS011;20477;51.390;8.102;2023-12-22T13:22:11;7.22;;;2.80;;
34212;SDS011;20477;51.390;8.102;2023-12-22T13:24:38;6.13;;;2.30;;
34212;SDS011;20477;51.390;8.102;2023-12-22T13:27:06;9.38;;;2.13;;
34212;SDS011;20477;51.390;8.102;2023-12-22T13:29:43;4.82;;;2.08;;
34212;SDS011;20477;51.390;8.102;2023-12-22T13:32:17;3.88;;;1.65;;
34212;SDS011;20477;51.390;8.102;2023-12-22T13:34:50;7.03;;;2.53;;
34212;SDS011;20477;51.390;8.102;2023-12-22T13:37:18;3.58;;;1.65;;
34212;SDS011;20477;51.390;8.102;2023-12-22T13:39:46;4.40;;;2.00;;
34212;SDS011;20477;51.390;8.102;2023-12-22T13:42:14;4.13;;;1.75;;
34212;SDS011;20477;51.390;8.102;2023-12-22T13:44:42;3.60;;;1.80;;
34212;SDS011;20477;51.390;8.102;2023-12-22T13:47:10;3.88;;;1.92;;
34212;SDS011;20477;51.390;8.102;2023-12-22T13:49:38;5.38;;;2.33;;
34212;SDS011;20477;51.390;8.102;2023-12-22T13:52:07;11.23;;;3.60;;
34212;SDS011;20477;51.390;8.102;2023-12-22T13:54:34;6.45;;;1.88;;
34212;SDS011;20477;51.390;8.102;2023-12-22T13:57:02;8.38;;;2.72;;
34212;SDS011;20477;51.390;8.102;2023-12-22T13:59:31;6.78;;;2.88;;
34212;SDS011;20477;51.390;8.102;2023-12-22T14:01:59;9.30;;;3.20;;
34212;SDS011;20477;51.390;8.102;2023-12-22T14:04:26;4.43;;;2.00;;
34212;SDS011;20477;51.390;8.102;2023-12-22T14:06:54;6.82;;;3.25;;
34212;SDS011;20477;51.390;8.102;2023-12-22T14:09:23;7.40;;;2.20;;
34212;SDS011;20477;51.390;8.102;2023-12-22T14:11:51;7.20;;;3.15;;
34212;SDS011;20477;51.390;8.102;2023-12-22T14:14:27;4.78;;;2.00;;
34212;SDS011;20477;51.390;8.102;2023-12-22T14:16:58;6.28;;;2.38;;
34212;SDS011;20477;51.390;8.102;2023-12-22T14:19:26;3.28;;;1.52;;
34212;SDS011;20477;51.390;8.102;2023-12-22T14:21:54;3.42;;;1.40;;
34212;SDS011;20477;51.390;8.102;2023-12-22T14:24:22;3.05;;;1.40;;
34212;SDS011;20477;51.390;8.102;2023-12-22T14:26:53;3.20;;;1.60;;
34212;SDS011;20477;51.390;8.102;2023-12-22T14:29:21;3.13;;;1.30;;
34212;SDS011;20477;51.390;8.102;2023-12-22T14:31:49;2.53;;;1.20;;
34212;SDS011;20477;51.390;8.102;2023-12-22T14:34:17;3.20;;;1.40;;
34212;SDS011;20477;51.390;8.102;2023-12-22T14:36:44;4.95;;;1.50;;
34212;SDS011;20477;51.390;8.102;2023-12-22T14:39:13;2.85;;;1.40;;
34212;SDS011;20477;51.390;8.102;2023-12-22T14:41:41;4.63;;;1.30;;
34212;SDS011;20477;51.390;8.102;2023-12-22T14:44:10;3.45;;;1.60;;
34212;SDS011;20477;51.390;8.102;2023-12-22T14:46:38;2.33;;;0.95;;